createdAt,value
2022-09-03T00:00:02.896Z,75.50
2022-09-03T00:02:53.505Z,76.10
2022-09-03T00:05:44.749Z,76.00
2022-09-03T00:08:36.688Z,76.40
2022-09-03T00:11:29.490Z,77.50
2022-09-03T00:14:20.599Z,78.20
2022-09-03T00:17:12.026Z,78.50
2022-09-03T00:20:02.738Z,79.20
2022-09-03T00:22:52.318Z,79.60
2022-09-03T00:25:43.945Z,80.90
2022-09-03T00:28:35.120Z,80.30
2022-09-03T00:31:27.322Z,81.70
2022-09-03T00:34:17.816Z,82.50
2022-09-03T00:37:06.009Z,83.70
2022-09-03T00:39:58.225Z,84.40
2022-09-03T00:42:52.013Z,85.00
2022-09-03T00:45:45.088Z,86.30
2022-09-03T00:48:35.075Z,85.70
2022-09-03T00:51:34.310Z,86.60
2022-09-03T00:54:25.504Z,85.90
2022-09-03T00:57:25.405Z,84.40
2022-09-03T01:00:15.632Z,86.70
2022-09-03T01:03:07.895Z,87.00
2022-09-03T01:06:12.029Z,83.00
2022-09-03T01:09:04.547Z,86.70
2022-09-03T01:12:00.143Z,84.10
2022-09-03T01:14:53.968Z,84.90
2022-09-03T01:17:52.057Z,86.90
2022-09-03T01:20:46.466Z,87.40
2022-09-03T01:23:39.741Z,86.70
2022-09-03T01:26:36.770Z,88.20
2022-09-03T01:29:29.108Z,87.40
2022-09-03T01:32:20.828Z,89.60
2022-09-03T01:35:11.476Z,87.60
2022-09-03T01:38:03.505Z,90.00
2022-09-03T01:40:57.074Z,90.20
2022-09-03T01:43:51.808Z,90.30
2022-09-03T01:46:41.729Z,90.90
2022-09-03T01:49:33.060Z,91.30
2022-09-03T01:52:26.211Z,91.60
2022-09-03T01:55:22.108Z,91.70
2022-09-03T01:58:15.430Z,92.40
2022-09-03T02:01:08.509Z,90.50
2022-09-03T02:04:00.230Z,90.80
2022-09-03T02:06:48.987Z,91.50
2022-09-03T02:09:37.055Z,91.60
2022-09-03T02:12:25.024Z,91.80
2022-09-03T02:15:15.466Z,91.90
2022-09-03T02:18:07.689Z,92.30
2022-09-03T02:20:58.511Z,92.70
2022-09-03T02:23:47.060Z,92.80
2022-09-03T02:26:35.561Z,92.80
2022-09-03T02:29:23.856Z,92.70
2022-09-03T02:32:11.850Z,92.60
2022-09-03T02:35:00.327Z,92.70
2022-09-03T02:37:50.177Z,92.90
2022-09-03T02:40:38.268Z,93.20
2022-09-03T02:43:31.936Z,93.20
2022-09-03T02:46:24.362Z,94.00
2022-09-03T02:49:12.482Z,93.90
2022-09-03T02:52:01.768Z,93.80
2022-09-03T02:54:51.342Z,93.80
2022-09-03T02:57:39.319Z,93.90
2022-09-03T03:00:28.653Z,94.00
2022-09-03T03:03:16.717Z,94.00
2022-09-03T03:06:07.040Z,94.20
2022-09-03T03:08:57.807Z,94.70
2022-09-03T03:11:47.215Z,94.30
2022-09-03T03:14:35.234Z,94.90
2022-09-03T03:17:23.363Z,94.90
2022-09-03T03:20:12.110Z,95.00
2022-09-03T03:23:02.472Z,94.60
2022-09-03T03:25:50.514Z,94.90
2022-09-03T03:28:42.338Z,95.20
2022-09-03T03:31:30.400Z,95.20
2022-09-03T03:34:18.782Z,95.20
2022-09-03T03:37:06.942Z,95.50
2022-09-03T03:39:54.965Z,95.80
2022-09-03T03:42:43.324Z,95.90
2022-09-03T03:45:32.735Z,96.00
2022-09-03T03:48:20.776Z,96.10
2022-09-03T03:51:10.888Z,96.00
2022-09-03T03:54:04.317Z,96.20
2022-09-03T03:56:55.738Z,96.30
2022-09-03T03:59:44.058Z,96.40
2022-09-03T04:02:38.946Z,96.60
2022-09-03T04:05:27.213Z,96.70
2022-09-03T04:08:21.708Z,96.70
2022-09-03T04:11:15.992Z,96.90
2022-09-03T04:14:04.024Z,97.00
2022-09-03T04:16:52.042Z,97.10
2022-09-03T04:19:41.531Z,97.40
2022-09-03T04:22:30.413Z,97.60
2022-09-03T04:25:18.408Z,97.70
2022-09-03T04:28:06.414Z,97.70
2022-09-03T04:30:55.060Z,98.20
2022-09-03T04:33:43.886Z,97.80
2022-09-03T04:36:35.035Z,97.60
2022-09-03T04:39:23.168Z,98.00
2022-09-03T04:42:11.255Z,98.00
2022-09-03T04:44:59.284Z,98.20
2022-09-03T04:47:57.581Z,98.50
2022-09-03T04:50:45.551Z,99.20
2022-09-03T04:53:36.655Z,98.90
2022-09-03T04:56:26.794Z,99.00
2022-09-03T04:59:14.837Z,99.10
2022-09-03T05:02:03.132Z,99.10
2022-09-03T05:04:51.676Z,99.20
2022-09-03T05:07:40.204Z,98.80
2022-09-03T05:10:29.709Z,99.10
2022-09-03T05:13:17.918Z,99.30
2022-09-03T05:16:08.488Z,99.20
2022-09-03T05:18:59.640Z,98.60
2022-09-03T05:21:47.620Z,98.90
2022-09-03T05:24:35.592Z,98.60
2022-09-03T05:27:25.075Z,98.20
2022-09-03T05:30:13.898Z,98.40
2022-09-03T05:33:01.897Z,98.50
2022-09-03T05:35:49.900Z,98.70
2022-09-03T05:38:38.378Z,98.00
2022-09-03T05:41:26.989Z,97.90
2022-09-03T05:44:16.332Z,97.70
2022-09-03T05:47:04.318Z,97.30
2022-09-03T05:49:52.330Z,97.90
2022-09-03T05:52:40.254Z,97.70
2022-09-03T05:55:29.254Z,98.70
2022-09-03T05:58:17.359Z,97.50
2022-09-03T06:01:13.749Z,97.00
2022-09-03T06:04:03.220Z,95.90
2022-09-03T06:06:51.307Z,96.80
2022-09-03T06:09:39.445Z,96.90
2022-09-03T06:12:27.610Z,96.50
2022-09-03T06:15:15.736Z,96.40
2022-09-03T06:18:05.252Z,96.80
2022-09-03T06:20:56.829Z,96.70
2022-09-03T06:23:45.825Z,96.30
2022-09-03T06:26:35.160Z,96.50
2022-09-03T06:29:23.178Z,96.70
2022-09-03T06:32:11.243Z,96.40
2022-09-03T06:35:00.573Z,96.90
2022-09-03T06:37:48.976Z,96.30
2022-09-03T06:40:37.106Z,96.70
2022-09-03T06:43:26.771Z,96.50
2022-09-03T06:46:16.395Z,96.90
2022-09-03T06:49:04.839Z,96.30
2022-09-03T06:51:54.218Z,96.20
2022-09-03T06:54:42.235Z,96.10
2022-09-03T06:57:30.667Z,96.40
2022-09-03T07:00:18.783Z,96.40
2022-09-03T07:03:06.975Z,95.90
2022-09-03T07:05:55.024Z,96.00
2022-09-03T07:08:44.809Z,96.00
2022-09-03T07:11:35.430Z,95.70
2022-09-03T07:14:23.911Z,95.90
2022-09-03T07:17:11.842Z,95.60
2022-09-03T07:19:59.834Z,95.30
2022-09-03T07:22:47.790Z,95.50
2022-09-03T07:25:37.211Z,95.10
2022-09-03T07:28:25.849Z,95.10
2022-09-03T07:31:16.722Z,95.20
2022-09-03T07:34:10.128Z,95.20
2022-09-03T07:36:58.665Z,95.00
2022-09-03T07:39:47.062Z,95.10
2022-09-03T07:42:38.428Z,94.90
2022-09-03T07:45:27.886Z,94.90
2022-09-03T07:48:17.786Z,94.90
2022-09-03T07:51:06.080Z,94.70
2022-09-03T07:53:57.637Z,94.80
2022-09-03T07:56:45.641Z,94.30
2022-09-03T07:59:35.664Z,94.40
2022-09-03T08:02:23.602Z,94.20
2022-09-03T08:05:11.589Z,94.20
2022-09-03T08:08:00.954Z,94.40
2022-09-03T08:10:51.178Z,94.30
2022-09-03T08:13:40.913Z,94.30
2022-09-03T08:16:32.155Z,93.10
2022-09-03T08:19:20.639Z,93.30
2022-09-03T08:22:08.636Z,93.30
2022-09-03T08:24:56.568Z,93.40
2022-09-03T08:27:44.424Z,93.00
2022-09-03T08:30:32.435Z,92.80
2022-09-03T08:33:37.040Z,93.00
2022-09-03T08:36:26.918Z,93.10
2022-09-03T08:39:14.916Z,92.80
2022-09-03T08:42:14.894Z,92.70
2022-09-03T08:45:03.884Z,92.90
2022-09-03T08:47:56.047Z,92.90
2022-09-03T08:50:46.631Z,92.60
2022-09-03T08:53:39.616Z,92.70
2022-09-03T08:56:29.088Z,93.00
2022-09-03T08:59:17.098Z,92.70
2022-09-03T09:02:11.818Z,92.30
2022-09-03T09:05:02.545Z,92.30
2022-09-03T09:08:03.023Z,92.30
2022-09-03T09:10:57.027Z,92.20
2022-09-03T09:13:48.739Z,92.30
2022-09-03T09:16:39.803Z,92.10
2022-09-03T09:19:36.381Z,92.10
2022-09-03T09:22:28.532Z,91.80
2022-09-03T09:25:19.042Z,91.50
2022-09-03T09:28:13.896Z,91.80
2022-09-03T09:31:02.578Z,91.70
2022-09-03T09:33:52.523Z,91.80
2022-09-03T09:36:44.689Z,92.00
2022-09-03T09:39:32.659Z,91.90
2022-09-03T09:42:22.558Z,91.70
2022-09-03T09:45:10.774Z,91.60
2022-09-03T09:47:58.614Z,91.30
2022-09-03T09:50:46.604Z,91.60
2022-09-03T09:53:35.075Z,91.20
2022-09-03T09:56:24.054Z,91.10
2022-09-03T09:59:14.899Z,90.70
2022-09-03T10:02:11.137Z,90.80
2022-09-03T10:05:02.955Z,90.70
2022-09-03T10:07:56.278Z,90.30
2022-09-03T10:10:49.838Z,90.50
2022-09-03T10:13:41.567Z,90.30
2022-09-03T10:16:35.015Z,90.20
2022-09-03T10:19:25.615Z,90.10
2022-09-03T10:22:14.421Z,90.30
2022-09-03T10:25:04.698Z,90.10
2022-09-03T10:27:56.745Z,89.40
2022-09-03T10:30:58.687Z,89.90
2022-09-03T10:33:50.964Z,89.00
2022-09-03T10:36:41.741Z,89.70
2022-09-03T10:39:42.802Z,89.10
2022-09-03T10:42:37.475Z,88.50
2022-09-03T10:45:37.393Z,89.20
2022-09-03T10:48:33.317Z,88.90
2022-09-03T10:51:25.080Z,88.60
2022-09-03T10:54:22.581Z,87.70
2022-09-03T10:57:14.460Z,87.10
2022-09-03T11:00:07.570Z,87.50
2022-09-03T11:03:14.249Z,86.50
2022-09-03T11:06:10.955Z,86.20
2022-09-03T11:09:06.507Z,86.80
2022-09-03T11:11:57.515Z,86.40
2022-09-03T11:14:47.006Z,86.00
2022-09-03T11:17:37.393Z,83.70
2022-09-03T11:20:26.944Z,84.90
2022-09-03T11:23:15.127Z,85.20
2022-09-03T11:26:07.609Z,83.20
2022-09-03T11:28:58.226Z,83.10
2022-09-03T11:31:57.787Z,83.30
2022-09-03T11:34:47.500Z,82.40
2022-09-03T11:37:46.340Z,81.10
2022-09-03T11:40:35.121Z,81.10
2022-09-03T11:43:29.284Z,81.50
2022-09-03T11:46:29.332Z,81.10
2022-09-03T11:49:26.314Z,80.40
2022-09-03T11:52:14.164Z,80.30
2022-09-03T11:55:02.041Z,79.00
2022-09-03T11:57:50.494Z,78.50
2022-09-03T12:00:40.204Z,79.20
2022-09-03T12:03:30.653Z,79.30
2022-09-03T12:06:28.884Z,78.10
2022-09-03T12:09:24.427Z,78.30
2022-09-03T12:12:17.112Z,78.40
2022-09-03T12:15:09.111Z,78.30
2022-09-03T12:18:16.836Z,78.60
2022-09-03T12:21:06.344Z,79.00
2022-09-03T12:23:55.558Z,78.60
2022-09-03T12:26:46.444Z,78.90
2022-09-03T12:29:34.323Z,78.70
2022-09-03T12:32:22.376Z,79.50
2022-09-03T12:35:58.207Z,81.00
2022-09-03T12:38:24.176Z,81.30
2022-09-03T12:41:26.640Z,81.00
2022-09-03T12:44:15.225Z,79.90
2022-09-03T12:50:12.994Z,80.40
2022-09-03T12:53:03.643Z,79.10
2022-09-03T12:55:53.270Z,80.20
2022-09-03T12:58:43.995Z,80.00
2022-09-03T13:01:33.459Z,80.80
2022-09-03T13:04:24.859Z,80.00
2022-09-03T13:07:14.864Z,80.10
2022-09-03T13:10:06.984Z,80.70
2022-09-03T13:12:59.071Z,81.00
2022-09-03T13:15:56.638Z,81.00
2022-09-03T13:18:47.271Z,80.50
2022-09-03T13:21:40.345Z,81.00
2022-09-03T13:24:49.364Z,80.00
2022-09-03T13:27:43.203Z,80.10
2022-09-03T13:30:32.490Z,80.20
2022-09-03T13:33:22.394Z,80.10
2022-09-03T13:36:18.066Z,79.70
2022-09-03T13:39:07.870Z,79.00
2022-09-03T13:41:58.639Z,78.50
2022-09-03T13:44:50.141Z,77.80
2022-09-03T13:48:02.249Z,79.00
2022-09-03T13:50:57.675Z,78.70
2022-09-03T13:53:53.373Z,78.50
2022-09-03T13:56:52.172Z,77.60
2022-09-03T13:59:44.201Z,78.60
2022-09-03T14:02:41.006Z,77.60
2022-09-03T14:05:36.828Z,78.60
2022-09-03T14:08:26.972Z,78.10
2022-09-03T14:11:21.249Z,78.70
2022-09-03T14:14:13.266Z,78.50
2022-09-03T14:17:03.274Z,78.90
2022-09-03T14:19:57.186Z,77.50
2022-09-03T14:22:49.167Z,77.30
2022-09-03T14:25:37.115Z,77.60
2022-09-03T14:28:30.655Z,76.50
2022-09-03T14:31:27.053Z,76.70
2022-09-03T14:34:18.905Z,77.00
2022-09-03T14:37:11.075Z,77.00
2022-09-03T14:40:05.261Z,75.50
2022-09-03T14:43:05.213Z,76.20
2022-09-03T14:46:06.325Z,75.70
2022-09-03T14:49:05.966Z,76.20
2022-09-03T14:52:03.506Z,76.00
2022-09-03T14:55:00.142Z,75.70
2022-09-03T14:58:08.964Z,75.20
2022-09-03T15:01:00.330Z,76.00
2022-09-03T15:04:09.328Z,76.20
2022-09-03T15:07:03.814Z,75.90
2022-09-03T15:10:02.600Z,75.80
2022-09-03T15:12:52.337Z,77.20
2022-09-03T15:15:48.457Z,77.90
2022-09-03T15:18:43.311Z,78.20
2022-09-03T15:21:41.386Z,78.60
2022-09-03T15:24:33.042Z,80.40
2022-09-03T15:27:33.049Z,79.50
2022-09-03T15:30:21.580Z,80.30
2022-09-03T15:33:14.331Z,80.90
2022-09-03T15:36:12.435Z,80.10
2022-09-03T15:39:03.099Z,79.90
2022-09-03T15:41:53.586Z,80.00
2022-09-03T15:44:45.919Z,79.90
2022-09-03T15:47:50.561Z,80.20
2022-09-03T15:50:49.226Z,81.20
2022-09-03T15:53:40.545Z,82.10
2022-09-03T15:56:30.083Z,81.20
2022-09-03T15:59:20.819Z,81.60
2022-09-03T16:02:11.482Z,80.80
2022-09-03T16:05:06.056Z,82.00
2022-09-03T16:07:59.230Z,83.80
2022-09-03T16:10:51.441Z,82.60
2022-09-03T16:13:51.232Z,81.50
2022-09-03T16:16:47.715Z,82.70
2022-09-03T16:19:38.969Z,83.50
2022-09-03T16:22:28.573Z,82.70
2022-09-03T16:25:18.444Z,83.50
2022-09-03T16:28:14.212Z,83.40
2022-09-03T16:31:08.951Z,81.70
2022-09-03T16:34:00.051Z,82.00
2022-09-03T16:36:52.525Z,81.90
2022-09-03T16:39:46.674Z,80.80
2022-09-03T16:42:40.844Z,80.40
2022-09-03T16:45:33.728Z,80.60
2022-09-03T16:48:25.903Z,80.60
2022-09-03T16:51:16.065Z,81.30
2022-09-03T16:54:14.308Z,80.70
2022-09-03T16:57:09.769Z,82.30
2022-09-03T17:00:03.802Z,84.00
2022-09-03T17:03:04.818Z,82.50
2022-09-03T17:06:17.394Z,82.80
2022-09-03T17:09:12.452Z,82.00
2022-09-03T17:12:02.240Z,83.10
2022-09-03T17:15:06.150Z,84.10
2022-09-03T17:18:02.155Z,84.50
2022-09-03T17:20:52.316Z,82.80
2022-09-03T17:23:59.037Z,83.60
2022-09-03T17:26:55.857Z,83.30
2022-09-03T17:29:54.050Z,83.70
2022-09-03T17:32:48.657Z,82.50
2022-09-03T17:35:39.337Z,83.80
2022-09-03T17:38:41.465Z,83.30
2022-09-03T17:41:35.431Z,84.20
2022-09-03T17:44:35.364Z,82.90
2022-09-03T17:47:44.252Z,83.70
2022-09-03T17:50:33.621Z,85.70
2022-09-03T17:53:26.876Z,85.10
2022-09-03T17:56:22.204Z,86.90
2022-09-03T17:59:13.344Z,86.40
2022-09-03T18:02:04.672Z,84.00
2022-09-03T18:04:58.199Z,84.40
2022-09-03T18:07:50.698Z,84.30
2022-09-03T18:10:43.707Z,85.30
2022-09-03T18:13:36.592Z,88.20
2022-09-03T18:16:27.171Z,88.10
2022-09-03T18:19:29.263Z,87.50
2022-09-03T18:22:34.721Z,90.00
2022-09-03T18:25:43.102Z,90.00
2022-09-03T18:28:53.573Z,90.30
2022-09-03T18:31:58.997Z,88.70
2022-09-03T18:35:05.725Z,89.50
2022-09-03T18:38:11.347Z,88.20
2022-09-03T18:41:22.869Z,88.00
2022-09-03T18:44:33.644Z,89.30
2022-09-03T18:48:06.860Z,87.50
2022-09-03T18:51:17.673Z,90.00
2022-09-03T18:54:45.082Z,88.30
2022-09-03T18:57:59.659Z,90.70
2022-09-03T19:01:09.152Z,90.80
2022-09-03T19:04:22.195Z,91.40
2022-09-03T19:07:31.961Z,91.50
2022-09-03T19:10:41.151Z,91.70
2022-09-03T19:13:51.291Z,91.20
2022-09-03T19:17:01.688Z,91.80
2022-09-03T19:20:15.405Z,90.70
2022-09-03T19:23:22.623Z,91.00
2022-09-03T19:26:33.982Z,91.40
2022-09-03T19:29:45.583Z,92.80
2022-09-03T19:32:56.618Z,91.30
2022-09-03T19:36:05.130Z,93.00
2022-09-03T19:39:18.622Z,92.30
2022-09-03T19:42:29.251Z,91.90
2022-09-03T19:45:39.769Z,91.90
2022-09-03T19:48:47.801Z,92.70
2022-09-03T19:51:55.808Z,92.80
2022-09-03T19:55:02.987Z,92.80
2022-09-03T19:58:32.517Z,93.40
2022-09-03T20:01:44.317Z,94.00
2022-09-03T20:04:51.490Z,94.00
2022-09-03T20:07:57.549Z,94.10
2022-09-03T20:10:48.483Z,95.40
2022-09-03T20:13:54.088Z,95.80
2022-09-03T20:16:45.332Z,96.50
2022-09-03T20:19:37.485Z,97.00
2022-09-03T20:22:30.014Z,96.90
2022-09-03T20:25:29.581Z,97.40
2022-09-03T20:28:26.494Z,96.90
2022-09-03T20:31:18.277Z,97.90
2022-09-03T20:34:13.904Z,98.30
2022-09-03T20:37:09.862Z,98.80
2022-09-03T20:40:08.686Z,98.20
2022-09-03T20:43:03.958Z,98.10
2022-09-03T20:46:00.331Z,98.90
2022-09-03T20:48:52.939Z,98.80
2022-09-03T20:51:43.245Z,98.40
2022-09-03T20:54:33.742Z,99.30
2022-09-03T20:57:26.081Z,99.70
2022-09-03T21:00:15.384Z,99.40
2022-09-03T21:03:10.304Z,98.80
2022-09-03T21:06:02.045Z,98.70
2022-09-03T21:08:57.804Z,99.50
2022-09-03T21:11:49.268Z,97.70
2022-09-03T21:14:41.438Z,98.00
2022-09-03T21:17:31.920Z,99.20
2022-09-03T21:20:26.057Z,99.90
2022-09-03T21:23:20.965Z,99.90
2022-09-03T21:26:15.026Z,99.90
2022-09-03T21:29:04.578Z,99.90
2022-09-03T21:31:55.515Z,99.90
2022-09-03T21:34:45.573Z,99.90
2022-09-03T21:37:35.801Z,99.90
2022-09-03T21:40:26.949Z,99.90
2022-09-03T21:43:20.293Z,99.90
2022-09-03T21:46:09.923Z,99.90
2022-09-03T21:48:59.489Z,99.90
2022-09-03T21:51:52.802Z,99.90
2022-09-03T21:54:42.001Z,99.90
2022-09-03T21:57:33.054Z,99.90
2022-09-03T22:00:29.551Z,99.90
2022-09-03T22:03:17.541Z,99.90
2022-09-03T22:06:07.672Z,99.90
2022-09-03T22:08:58.831Z,99.90
2022-09-03T22:11:51.156Z,99.90
2022-09-03T22:14:43.455Z,99.90
2022-09-03T22:17:36.281Z,99.90
2022-09-03T22:20:24.498Z,99.90
2022-09-03T22:23:13.949Z,99.90
2022-09-03T22:26:05.043Z,99.90
2022-09-03T22:29:00.576Z,99.90
2022-09-03T22:31:54.002Z,99.90
2022-09-03T22:34:47.409Z,99.90
2022-09-03T22:37:43.273Z,99.90
2022-09-03T22:40:35.230Z,99.90
2022-09-03T22:43:30.370Z,99.90
2022-09-03T22:46:20.961Z,99.90
2022-09-03T22:49:21.738Z,99.90
2022-09-03T22:52:16.045Z,99.90
2022-09-03T22:55:12.455Z,99.90
2022-09-03T22:58:02.780Z,99.90
2022-09-03T23:00:55.500Z,99.90
2022-09-03T23:03:46.525Z,99.90
2022-09-03T23:06:35.875Z,99.90
2022-09-03T23:09:25.744Z,99.90
2022-09-03T23:12:16.413Z,99.90
2022-09-03T23:15:06.931Z,99.90
2022-09-03T23:18:01.583Z,99.90
2022-09-03T23:20:56.281Z,99.90
2022-09-03T23:23:46.881Z,99.90
2022-09-03T23:26:37.529Z,99.90
2022-09-03T23:29:27.690Z,99.90
2022-09-03T23:32:15.948Z,99.90
2022-09-03T23:35:05.049Z,99.90
2022-09-03T23:38:00.980Z,99.90
2022-09-03T23:40:49.357Z,99.90
2022-09-03T23:43:52.490Z,99.90
2022-09-03T23:46:45.751Z,99.90
2022-09-03T23:49:37.600Z,99.90
2022-09-03T23:52:40.086Z,99.90
2022-09-03T23:55:35.771Z,99.90
2022-09-03T23:58:29.853Z,99.90
